Time;durP1;ratioP1;P1;durP2;ratioP2;P2;SDS_P1;SDS_P2;PMS_P1;PMS_P2;Temp;Humidity;BMP_temperature;BMP_pressure;BME280_temperature;BME280_humidity;BME280_pressure;Samples;Min_cycle;Max_cycle;Signal;HPM_P1;HPM_P2
2023/05/31 00:02:13;;;;;;;4.82;3.55;;;10.10;99.90;;;;;;5084559;28;20452;-34
2023/05/31 00:04:39;;;;;;;5.60;3.65;;;10.10;99.90;;;;;;5072242;28;20036;-35
2023/05/31 00:07:06;;;;;;;6.05;3.63;;;10.00;99.90;;;;;;5091949;28;20461;-35
2023/05/31 00:09:32;;;;;;;4.82;3.10;;;10.00;99.90;;;;;;5087596;28;20032;-35
2023/05/31 00:11:58;;;;;;;6.28;3.75;;;10.00;99.90;;;;;;5091384;28;20059;-34
2023/05/31 00:14:23;;;;;;;8.10;3.80;;;9.90;99.90;;;;;;5092408;28;20040;-35
2023/05/31 00:16:49;;;;;;;4.57;3.28;;;9.90;99.90;;;;;;5089795;28;20426;-34
2023/05/31 00:19:15;;;;;;;5.60;3.42;;;9.90;99.90;;;;;;5087194;28;20114;-34
2023/05/31 00:21:43;;;;;;;6.95;4.47;;;9.90;99.90;;;;;;5091985;28;20043;-34
2023/05/31 00:24:08;;;;;;;5.43;3.40;;;9.90;99.90;;;;;;5092422;28;20044;-34
2023/05/31 00:26:34;;;;;;;6.38;3.83;;;9.80;99.90;;;;;;5091929;28;20563;-36
2023/05/31 00:29:00;;;;;;;5.05;3.80;;;9.80;99.90;;;;;;5082241;28;20040;-34
2023/05/31 00:31:25;;;;;;;5.25;3.40;;;9.70;99.90;;;;;;5088713;28;20085;-34
2023/05/31 00:33:51;;;;;;;4.95;3.58;;;9.70;99.90;;;;;;5091892;28;20074;-34
2023/05/31 00:36:17;;;;;;;4.97;3.42;;;9.70;99.90;;;;;;5088182;28;20032;-34
2023/05/31 00:38:43;;;;;;;6.53;4.30;;;9.70;99.90;;;;;;5084384;28;20036;-34
2023/05/31 00:41:10;;;;;;;5.82;3.95;;;9.60;99.90;;;;;;5085909;28;20036;-34
2023/05/31 00:43:35;;;;;;;7.25;4.25;;;9.60;99.90;;;;;;5087471;28;20398;-33
2023/05/31 00:46:02;;;;;;;6.28;3.90;;;9.60;99.90;;;;;;5090246;28;20025;-34
2023/05/31 00:48:29;;;;;;;7.10;4.22;;;9.60;99.90;;;;;;5093354;28;20040;-34
2023/05/31 00:50:55;;;;;;;7.53;4.53;;;9.60;99.90;;;;;;5093053;28;20469;-34
2023/05/31 00:53:22;;;;;;;5.93;4.70;;;9.50;99.90;;;;;;5091586;28;20122;-34
2023/05/31 00:55:52;;;;;;;6.10;4.55;;;9.50;99.90;;;;;;5091654;28;20085;-33
2023/05/31 00:58:17;;;;;;;5.28;4.03;;;9.50;99.90;;;;;;5091480;28;20032;-35
2023/05/31 01:00:43;;;;;;;7.82;4.60;;;9.40;99.90;;;;;;5091901;28;20040;-34
2023/05/31 01:03:09;;;;;;;7.47;4.40;;;9.50;99.90;;;;;;5084184;28;20082;-34
2023/05/31 01:05:35;;;;;;;8.18;5.00;;;9.50;99.90;;;;;;5091469;28;20031;-34
2023/05/31 01:08:02;;;;;;;8.05;5.22;;;9.40;99.90;;;;;;5090169;28;20491;-34
2023/05/31 01:10:29;;;;;;;9.38;5.75;;;9.40;99.90;;;;;;5091249;28;20131;-34
2023/05/31 01:13:23;;;;;;;7.03;4.93;;;9.40;99.90;;;;;;5090505;28;20042;-33
2023/05/31 01:16:01;;;;;;;6.20;4.72;;;9.40;99.90;;;;;;5088233;28;20028;-37
2023/05/31 01:18:34;;;;;;;6.40;4.80;;;9.40;99.90;;;;;;5088702;28;20028;-35
2023/05/31 01:21:03;;;;;;;7.37;5.33;;;9.40;99.90;;;;;;5086918;28;20039;-34
2023/05/31 01:23:37;;;;;;;7.15;4.97;;;9.40;99.90;;;;;;5090064;28;20080;-36
2023/05/31 01:26:18;;;;;;;6.82;5.15;;;9.40;99.90;;;;;;5092217;28;20305;-37
2023/05/31 01:28:53;;;;;;;8.18;4.93;;;9.40;99.90;;;;;;5087766;28;20032;-36
2023/05/31 01:31:21;;;;;;;8.77;5.72;;;9.40;99.90;;;;;;5079154;28;20036;-36
2023/05/31 01:33:48;;;;;;;8.07;5.07;;;9.40;99.90;;;;;;5081423;28;20036;-35
2023/05/31 01:36:14;;;;;;;8.68;5.63;;;9.40;99.90;;;;;;5079688;28;20075;-35
2023/05/31 01:38:40;;;;;;;8.98;5.78;;;9.40;99.90;;;;;;5087106;28;20068;-37
2023/05/31 01:41:07;;;;;;;7.65;4.90;;;9.40;99.90;;;;;;5083930;28;20104;-34
2023/05/31 01:43:35;;;;;;;8.50;5.30;;;9.30;99.90;;;;;;5090406;28;20042;-36
2023/05/31 01:46:03;;;;;;;12.45;5.60;;;9.30;99.90;;;;;;5089293;28;20108;-36
2023/05/31 01:48:28;;;;;;;9.88;5.47;;;9.30;99.90;;;;;;5084864;28;20077;-35
2023/05/31 01:50:57;;;;;;;7.20;4.75;;;9.30;99.90;;;;;;5086878;28;20036;-35
2023/05/31 01:53:23;;;;;;;7.95;5.60;;;9.30;99.90;;;;;;5075980;28;20146;-35
2023/05/31 01:55:49;;;;;;;7.82;5.40;;;9.30;99.90;;;;;;5076475;28;20523;-39
2023/05/31 01:58:17;;;;;;;10.57;6.07;;;9.20;99.90;;;;;;5085645;28;20115;-35
2023/05/31 02:00:44;;;;;;;10.13;5.55;;;9.20;99.90;;;;;;5075913;28;20386;-34
2023/05/31 02:03:10;;;;;;;9.07;5.90;;;9.20;99.90;;;;;;5087904;28;20044;-35
2023/05/31 02:05:36;;;;;;;8.25;5.00;;;9.10;99.90;;;;;;5090935;28;20028;-35
2023/05/31 02:08:02;;;;;;;11.43;5.70;;;9.10;99.90;;;;;;5089892;28;20512;-35
2023/05/31 02:10:28;;;;;;;10.73;5.60;;;9.10;99.90;;;;;;5085211;28;20032;-34
2023/05/31 02:12:54;;;;;;;10.50;5.57;;;9.10;99.90;;;;;;5076955;28;20557;-35
2023/05/31 02:15:20;;;;;;;8.57;5.82;;;9.10;99.90;;;;;;5089343;28;20067;-35
2023/05/31 02:17:50;;;;;;;7.90;5.05;;;9.00;99.90;;;;;;5091349;28;20035;-36
2023/05/31 02:20:16;;;;;;;8.68;5.10;;;9.00;99.90;;;;;;5086566;28;20056;-34
2023/05/31 02:22:43;;;;;;;8.18;5.10;;;9.00;99.90;;;;;;5082351;28;20520;-35
2023/05/31 02:25:10;;;;;;;10.05;5.40;;;8.90;99.90;;;;;;5081992;28;20163;-37
2023/05/31 02:27:36;;;;;;;11.55;5.90;;;8.90;99.90;;;;;;5089969;28;20039;-36
2023/05/31 02:30:04;;;;;;;9.73;5.70;;;8.90;99.90;;;;;;5083637;28;20035;-35
2023/05/31 02:32:35;;;;;;;10.73;6.47;;;8.90;99.90;;;;;;5090120;28;20092;-36
2023/05/31 02:35:04;;;;;;;6.97;4.93;;;8.90;99.90;;;;;;5087847;28;20024;-35
2023/05/31 02:37:30;;;;;;;8.35;5.40;;;8.90;99.90;;;;;;5087321;28;20028;-35
2023/05/31 02:39:56;;;;;;;9.05;5.65;;;8.80;99.90;;;;;;5089893;28;20173;-34
2023/05/31 02:42:21;;;;;;;10.55;5.03;;;8.80;99.90;;;;;;5084455;28;20119;-38
2023/05/31 02:44:48;;;;;;;9.38;5.45;;;8.80;99.90;;;;;;5088412;28;20044;-34
2023/05/31 02:47:15;;;;;;;9.63;6.45;;;8.80;99.90;;;;;;5090072;28;20111;-34
2023/05/31 02:49:40;;;;;;;11.18;6.22;;;8.80;99.90;;;;;;5090148;28;20101;-35
2023/05/31 02:52:06;;;;;;;9.05;5.38;;;8.80;99.90;;;;;;5086576;28;20032;-34
2023/05/31 02:54:32;;;;;;;9.57;5.78;;;8.80;99.90;;;;;;5084726;28;20118;-35
2023/05/31 02:56:59;;;;;;;11.40;5.65;;;8.80;99.90;;;;;;5090907;28;20054;-35
2023/05/31 02:59:25;;;;;;;9.23;5.53;;;8.70;99.90;;;;;;5089472;28;20378;-35
2023/05/31 03:01:51;;;;;;;9.98;6.00;;;8.70;99.90;;;;;;5088693;28;20047;-34
2023/05/31 03:04:17;;;;;;;9.32;6.10;;;8.70;99.90;;;;;;5087421;28;20059;-35
2023/05/31 03:06:43;;;;;;;10.07;5.70;;;8.70;99.90;;;;;;5085611;28;20036;-36
2023/05/31 03:09:09;;;;;;;8.35;5.28;;;8.70;99.90;;;;;;5089556;28;20047;-38
2023/05/31 03:11:35;;;;;;;10.80;5.93;;;8.70;99.90;;;;;;5083254;28;20405;-35
2023/05/31 03:14:00;;;;;;;9.55;5.60;;;8.70;99.90;;;;;;5081456;28;20501;-36
2023/05/31 03:16:28;;;;;;;10.43;5.88;;;8.70;99.90;;;;;;5084891;28;20466;-38
2023/05/31 03:18:54;;;;;;;10.07;5.70;;;8.60;99.90;;;;;;5070123;28;20120;-35
2023/05/31 03:21:20;;;;;;;13.32;5.97;;;8.60;99.90;;;;;;5087681;28;20186;-35
2023/05/31 03:23:45;;;;;;;9.75;5.57;;;8.60;99.90;;;;;;5072202;28;20044;-35
2023/05/31 03:26:11;;;;;;;13.70;6.65;;;8.60;99.90;;;;;;5089174;28;20040;-36
2023/05/31 03:28:37;;;;;;;11.55;6.32;;;8.70;99.90;;;;;;5082474;28;20043;-37
2023/05/31 03:31:02;;;;;;;10.63;6.20;;;8.60;99.90;;;;;;5087838;28;20069;-35
2023/05/31 03:33:28;;;;;;;10.70;5.95;;;8.60;99.90;;;;;;5084805;28;20103;-35
2023/05/31 03:35:54;;;;;;;12.18;6.20;;;8.60;99.90;;;;;;5086632;28;20081;-35
2023/05/31 03:38:19;;;;;;;9.68;5.95;;;8.60;99.90;;;;;;5087360;28;20432;-36
2023/05/31 03:40:45;;;;;;;10.32;6.18;;;8.60;99.90;;;;;;5089741;28;20093;-35
2023/05/31 03:43:11;;;;;;;11.20;5.93;;;8.60;99.90;;;;;;5079493;28;20111;-37
2023/05/31 03:45:37;;;;;;;8.98;5.38;;;8.60;99.90;;;;;;5073880;28;20051;-35
2023/05/31 03:48:02;;;;;;;12.18;5.57;;;8.60;99.90;;;;;;5090541;28;20036;-36
2023/05/31 03:50:28;;;;;;;9.70;4.95;;;8.60;99.90;;;;;;5091933;28;20036;-35
2023/05/31 03:52:54;;;;;;;11.10;5.70;;;8.60;99.90;;;;;;5093063;28;20116;-36
2023/05/31 03:55:20;;;;;;;11.48;5.53;;;8.60;99.90;;;;;;5093093;28;20036;-35
2023/05/31 03:57:46;;;;;;;10.13;5.93;;;8.70;99.90;;;;;;5086347;28;20032;-35
2023/05/31 04:00:12;;;;;;;10.75;6.05;;;8.60;99.90;;;;;;5085543;28;20040;-38
2023/05/31 04:02:39;;;;;;;12.75;6.22;;;8.70;99.90;;;;;;5088944;28;20184;-35
2023/05/31 04:05:06;;;;;;;10.75;6.22;;;8.80;99.90;;;;;;5091118;28;20036;-35
2023/05/31 04:07:32;;;;;;;13.70;6.47;;;8.70;99.90;;;;;;5083500;28;20400;-36
2023/05/31 04:09:58;;;;;;;9.70;5.68;;;8.70;99.90;;;;;;5092994;28;20039;-34
2023/05/31 04:12:24;;;;;;;9.45;5.85;;;8.70;99.90;;;;;;5093072;28;20470;-39
2023/05/31 04:14:50;;;;;;;11.88;6.60;;;8.70;99.90;;;;;;5087759;28;20054;-37
2023/05/31 04:17:15;;;;;;;11.43;6.13;;;8.80;99.90;;;;;;5077507;28;20116;-35
2023/05/31 04:19:41;;;;;;;12.25;5.95;;;8.70;99.90;;;;;;5091012;28;20075;-32
2023/05/31 04:22:07;;;;;;;9.52;7.13;;;8.80;99.90;;;;;;5080466;28;20486;-33
2023/05/31 04:24:32;;;;;;;16.42;7.45;;;8.90;99.90;;;;;;5090831;28;20032;-33
2023/05/31 04:26:58;;;;;;;14.40;7.72;;;8.90;99.90;;;;;;5092402;28;20064;-33
2023/05/31 04:29:26;;;;;;;11.50;6.88;;;9.00;99.90;;;;;;5084377;28;20119;-35
2023/05/31 04:31:51;;;;;;;15.02;7.70;;;9.00;99.90;;;;;;5085633;28;20063;-33
2023/05/31 04:34:18;;;;;;;12.98;6.85;;;9.10;99.90;;;;;;5091111;28;20086;-33
2023/05/31 04:36:48;;;;;;;12.43;6.95;;;9.20;99.90;;;;;;5090464;28;20032;-32
2023/05/31 04:39:16;;;;;;;14.95;7.43;;;9.10;99.90;;;;;;5092205;28;20059;-33
2023/05/31 04:41:42;;;;;;;12.55;7.78;;;9.30;99.90;;;;;;5084594;28;20040;-33
2023/05/31 04:44:08;;;;;;;18.70;9.00;;;9.50;99.90;;;;;;5090962;28;20409;-33
2023/05/31 04:46:33;;;;;;;16.00;7.63;;;9.30;99.90;;;;;;5087477;28;20067;-33
2023/05/31 04:49:00;;;;;;;17.70;7.90;;;9.30;99.90;;;;;;5092497;28;20185;-33
2023/05/31 04:51:26;;;;;;;16.95;7.88;;;9.40;99.90;;;;;;5083548;28;20119;-33
2023/05/31 04:53:52;;;;;;;15.05;8.27;;;9.60;99.90;;;;;;5087882;28;20079;-33
2023/05/31 04:56:18;;;;;;;13.10;6.82;;;9.50;99.90;;;;;;5091323;28;20085;-33
2023/05/31 04:58:45;;;;;;;12.65;6.93;;;9.70;99.90;;;;;;5079267;28;20032;-33
2023/05/31 05:01:14;;;;;;;14.02;7.38;;;9.70;99.90;;;;;;5082891;28;20417;-33
2023/05/31 05:03:41;;;;;;;14.90;7.63;;;9.80;99.90;;;;;;5091158;28;20430;-33
2023/05/31 05:06:15;;;;;;;13.18;7.85;;;9.90;99.90;;;;;;5090705;28;20421;-33
2023/05/31 05:08:42;;;;;;;14.98;7.80;;;9.90;99.90;;;;;;5090660;28;20163;-33
2023/05/31 05:11:08;;;;;;;15.77;7.45;;;10.00;99.90;;;;;;5085501;28;20485;-33
2023/05/31 05:13:34;;;;;;;15.45;7.70;;;10.00;99.90;;;;;;5091140;28;20039;-33
2023/05/31 05:15:59;;;;;;;11.50;7.28;;;10.10;99.90;;;;;;5086926;28;20040;-33
2023/05/31 05:18:26;;;;;;;12.85;7.25;;;10.20;99.90;;;;;;5090378;28;20515;-33
2023/05/31 05:20:52;;;;;;;15.85;7.63;;;10.30;99.90;;;;;;5090901;28;20067;-33
2023/05/31 05:23:18;;;;;;;16.13;7.60;;;10.50;99.90;;;;;;5087335;28;20075;-34
2023/05/31 05:25:44;;;;;;;15.63;8.82;;;10.60;99.90;;;;;;5082175;28;20028;-33
2023/05/31 05:28:10;;;;;;;13.13;7.28;;;10.60;99.90;;;;;;5072476;28;20071;-33
2023/05/31 05:30:36;;;;;;;17.15;8.93;;;10.70;99.90;;;;;;5090848;28;20067;-33
2023/05/31 05:33:02;;;;;;;15.32;8.75;;;10.90;99.90;;;;;;5090237;28;20098;-33
2023/05/31 05:35:28;;;;;;;18.02;9.57;;;11.10;99.90;;;;;;5090858;28;20040;-32
2023/05/31 05:37:53;;;;;;;17.58;8.35;;;11.10;99.90;;;;;;5088907;28;20333;-33
2023/05/31 05:40:19;;;;;;;16.02;8.48;;;11.40;99.90;;;;;;5090406;28;20062;-33
2023/05/31 05:42:45;;;;;;;16.13;9.18;;;11.40;99.90;;;;;;5089331;28;20236;-33
2023/05/31 05:45:11;;;;;;;15.60;8.05;;;11.60;99.90;;;;;;5086825;28;20124;-33
2023/05/31 05:47:37;;;;;;;16.58;9.07;;;11.70;99.90;;;;;;5086942;28;20086;-33
2023/05/31 05:50:03;;;;;;;15.38;8.75;;;12.00;99.90;;;;;;5088266;28;20028;-34
2023/05/31 05:52:29;;;;;;;15.02;8.68;;;12.10;99.90;;;;;;5088353;28;20044;-34
2023/05/31 05:54:55;;;;;;;14.38;8.95;;;12.20;99.90;;;;;;5088792;28;20084;-34
2023/05/31 05:57:21;;;;;;;18.02;9.10;;;12.20;99.90;;;;;;5087528;28;20105;-33
2023/05/31 05:59:47;;;;;;;14.40;8.93;;;12.50;99.90;;;;;;5079872;28;20509;-35
2023/05/31 06:02:13;;;;;;;16.58;8.68;;;12.50;99.90;;;;;;5082683;28;20092;-36
2023/05/31 06:04:39;;;;;;;13.07;8.82;;;12.60;99.90;;;;;;5088744;28;20036;-33
2023/05/31 06:07:05;;;;;;;14.07;8.45;;;12.80;99.90;;;;;;5089046;28;20523;-34
2023/05/31 06:09:31;;;;;;;13.35;8.35;;;12.80;99.90;;;;;;5088994;28;20035;-34
2023/05/31 06:11:57;;;;;;;13.88;8.02;;;13.00;99.90;;;;;;5082303;28;20405;-32
2023/05/31 06:14:22;;;;;;;12.68;7.80;;;13.00;99.90;;;;;;5090246;28;20495;-34
2023/05/31 06:16:48;;;;;;;13.63;7.55;;;13.30;99.90;;;;;;5086184;28;20071;-33
2023/05/31 06:19:14;;;;;;;11.88;7.50;;;13.30;99.90;;;;;;5090090;28;20040;-34
2023/05/31 06:21:40;;;;;;;10.20;7.88;;;13.40;99.90;;;;;;5089790;28;20040;-34
2023/05/31 06:24:06;;;;;;;11.35;7.00;;;13.50;99.90;;;;;;5089281;28;20055;-37
2023/05/31 06:26:31;;;;;;;11.30;7.60;;;13.70;99.90;;;;;;5089085;28;20436;-34
2023/05/31 06:29:00;;;;;;;13.10;7.97;;;13.80;99.90;;;;;;5088399;28;20374;-33
2023/05/31 06:31:27;;;;;;;12.73;8.27;;;13.90;99.90;;;;;;5082803;28;20067;-34
2023/05/31 06:33:52;;;;;;;12.73;7.72;;;13.80;99.90;;;;;;5084853;28;20051;-34
2023/05/31 06:36:18;;;;;;;11.95;6.82;;;13.90;99.90;;;;;;5084265;28;20039;-33
2023/05/31 06:38:46;;;;;;;15.57;7.85;;;14.10;99.90;;;;;;5082267;28;20036;-34
2023/05/31 06:41:12;;;;;;;14.57;7.90;;;14.10;99.90;;;;;;5080286;28;20051;-36
2023/05/31 06:43:38;;;;;;;11.85;7.82;;;14.20;99.90;;;;;;5086775;28;20115;-35
2023/05/31 06:46:07;;;;;;;13.18;7.97;;;14.40;99.90;;;;;;5087715;28;20581;-33
2023/05/31 06:48:33;;;;;;;15.35;8.32;;;14.50;99.90;;;;;;5089973;28;20437;-37
2023/05/31 06:50:59;;;;;;;15.85;8.38;;;14.60;99.90;;;;;;5087091;28;20066;-34
2023/05/31 06:53:25;;;;;;;13.85;7.57;;;14.60;99.90;;;;;;5084123;28;20043;-33
2023/05/31 06:55:51;;;;;;;13.45;7.88;;;14.80;99.90;;;;;;5085228;28;20040;-36
2023/05/31 06:58:17;;;;;;;15.32;7.38;;;15.00;99.90;;;;;;5089313;28;20089;-35
2023/05/31 07:00:43;;;;;;;14.93;7.60;;;15.00;99.90;;;;;;5081544;28;20287;-33
2023/05/31 07:03:09;;;;;;;15.75;8.57;;;15.20;99.90;;;;;;5088022;28;20071;-34
2023/05/31 07:05:35;;;;;;;13.95;7.57;;;15.30;99.90;;;;;;5083187;28;20172;-34
2023/05/31 07:08:01;;;;;;;12.48;8.35;;;15.60;99.90;;;;;;5087712;28;20055;-34
2023/05/31 07:10:27;;;;;;;11.63;7.40;;;15.70;99.90;;;;;;5084153;28;20030;-34
2023/05/31 07:12:53;;;;;;;10.82;6.30;;;15.90;99.90;;;;;;5087675;28;20413;-34
2023/05/31 07:15:19;;;;;;;12.02;7.25;;;16.00;99.90;;;;;;5088467;28;20092;-34
2023/05/31 07:17:45;;;;;;;10.48;7.10;;;16.10;99.90;;;;;;5082368;28;20036;-34
2023/05/31 07:20:11;;;;;;;9.75;6.88;;;16.30;99.90;;;;;;5086973;28;20046;-34
2023/05/31 07:22:37;;;;;;;13.57;7.15;;;16.30;99.90;;;;;;5092639;28;20169;-34
2023/05/31 07:25:04;;;;;;;14.50;7.72;;;16.50;99.90;;;;;;5092598;28;20119;-34
2023/05/31 07:27:31;;;;;;;13.77;7.22;;;16.70;99.90;;;;;;5086686;28;20068;-34
2023/05/31 07:29:57;;;;;;;10.25;6.97;;;16.70;99.90;;;;;;5086881;28;20064;-33
2023/05/31 07:32:23;;;;;;;10.75;6.60;;;16.90;99.90;;;;;;5088453;28;20447;-36
2023/05/31 07:34:49;;;;;;;10.73;6.45;;;17.10;99.90;;;;;;5085569;28;20036;-33
2023/05/31 07:37:14;;;;;;;9.30;6.25;;;17.20;99.90;;;;;;5089397;28;20032;-33
2023/05/31 07:39:40;;;;;;;10.02;5.97;;;17.30;99.90;;;;;;5088357;28;20036;-34
2023/05/31 07:42:06;;;;;;;8.35;5.70;;;17.50;99.90;;;;;;5078395;28;20041;-34
2023/05/31 07:44:35;;;;;;;8.32;5.72;;;17.50;99.90;;;;;;5087410;28;20066;-33
2023/05/31 07:47:01;;;;;;;10.95;5.85;;;17.70;99.90;;;;;;5093089;28;20040;-33
2023/05/31 07:49:26;;;;;;;10.45;6.13;;;17.80;99.90;;;;;;5093480;28;20127;-34
2023/05/31 07:51:52;;;;;;;8.27;5.47;;;17.90;99.90;;;;;;5089975;28;20059;-34
2023/05/31 07:54:21;;;;;;;9.90;6.05;;;17.90;99.90;;;;;;5071936;28;20474;-34
2023/05/31 07:56:47;;;;;;;7.65;5.55;;;18.10;99.90;;;;;;5092718;28;21325;-33
2023/05/31 07:59:13;;;;;;;8.30;5.22;;;18.20;99.90;;;;;;5092802;28;20032;-34
2023/05/31 08:01:40;;;;;;;10.00;5.10;;;18.40;99.90;;;;;;5093169;28;20039;-34
2023/05/31 08:04:07;;;;;;;11.65;6.00;;;18.60;99.90;;;;;;5088208;28;20052;-34
2023/05/31 08:06:33;;;;;;;10.27;5.03;;;18.60;99.90;;;;;;5092990;28;20035;-34
2023/05/31 08:09:00;;;;;;;9.10;5.53;;;18.70;99.90;;;;;;5092697;28;20115;-33
2023/05/31 08:11:27;;;;;;;10.75;5.38;;;18.90;99.90;;;;;;5089433;28;20040;-40
2023/05/31 08:13:53;;;;;;;8.18;5.50;;;19.10;99.90;;;;;;5087648;28;20081;-33
2023/05/31 08:16:19;;;;;;;7.63;5.25;;;19.30;99.90;;;;;;5089901;28;20470;-35
2023/05/31 08:18:45;;;;;;;10.13;5.65;;;19.60;99.90;;;;;;5085565;28;20084;-33
2023/05/31 08:21:11;;;;;;;8.27;4.80;;;19.60;99.90;;;;;;5082367;28;20048;-36
2023/05/31 08:23:37;;;;;;;6.40;4.60;;;19.80;99.90;;;;;;5086496;28;20054;-35
2023/05/31 08:26:02;;;;;;;6.75;4.53;;;19.90;99.90;;;;;;5087661;28;20043;-35
2023/05/31 08:28:30;;;;;;;7.85;5.03;;;20.00;99.90;;;;;;5085628;28;20033;-34
2023/05/31 08:30:55;;;;;;;7.18;4.72;;;20.20;99.90;;;;;;5084502;28;20028;-34
2023/05/31 08:33:21;;;;;;;9.00;4.85;;;20.50;99.90;;;;;;5090056;28;20059;-34
2023/05/31 08:35:47;;;;;;;9.25;5.30;;;20.70;99.90;;;;;;5089396;28;20047;-35
2023/05/31 08:38:13;;;;;;;7.78;4.53;;;21.00;99.90;;;;;;5088550;28;20040;-36
2023/05/31 08:40:39;;;;;;;8.23;4.93;;;21.00;99.90;;;;;;5086578;28;20533;-36
2023/05/31 08:43:15;;;;;;;6.85;4.28;;;21.20;99.90;;;;;;5092141;28;20550;-34
2023/05/31 08:45:44;;;;;;;7.47;4.78;;;21.30;99.90;;;;;;5087732;28;20041;-35
2023/05/31 08:48:17;;;;;;;6.38;4.10;;;21.30;99.90;;;;;;5089482;28;20043;-34
2023/05/31 08:50:44;;;;;;;7.55;4.60;;;21.60;99.90;;;;;;5087532;28;20408;-34
2023/05/31 08:53:11;;;;;;;7.85;4.40;;;21.40;99.90;;;;;;5088565;28;20036;-34
2023/05/31 08:55:38;;;;;;;6.28;4.25;;;21.80;99.90;;;;;;5086669;28;20150;-35
2023/05/31 08:58:05;;;;;;;9.50;5.00;;;22.00;99.90;;;;;;5091745;28;20459;-36
2023/05/31 09:00:32;;;;;;;8.27;4.15;;;22.10;99.90;;;;;;5089593;28;20040;-34
2023/05/31 09:03:00;;;;;;;7.45;4.03;;;22.00;99.90;;;;;;5084595;28;20111;-35
2023/05/31 09:05:25;;;;;;;6.28;4.10;;;22.30;99.90;;;;;;5089629;28;20511;-34
2023/05/31 09:07:52;;;;;;;7.45;3.83;;;22.50;99.90;;;;;;5086477;28;20345;-34
2023/05/31 09:10:19;;;;;;;6.65;3.80;;;22.80;99.90;;;;;;5090775;28;20036;-37
2023/05/31 09:12:45;;;;;;;7.88;4.88;;;22.90;99.50;;;;;;5084186;28;20042;-34
2023/05/31 09:15:16;;;;;;;6.63;4.13;;;23.20;98.20;;;;;;5085884;28;20044;-34
2023/05/31 09:17:46;;;;;;;7.10;4.18;;;23.30;97.30;;;;;;5090640;28;20043;-37
2023/05/31 09:20:12;;;;;;;8.48;3.72;;;23.30;96.70;;;;;;5090138;28;20044;-35
2023/05/31 09:22:38;;;;;;;6.72;4.55;;;23.40;95.90;;;;;;5086274;28;20043;-34
2023/05/31 09:25:05;;;;;;;6.18;4.25;;;23.50;96.10;;;;;;5089016;28;20040;-34
2023/05/31 09:27:38;;;;;;;6.35;4.07;;;23.60;94.40;;;;;;5090811;28;20032;-35
2023/05/31 09:30:05;;;;;;;;;;;23.70;91.90;;;;;;5091182;28;20028;-35
2023/05/31 09:32:30;;;;;;;6.82;3.95;;;23.70;82.00;;;;;;5088989;28;19923;-38
2023/05/31 09:35:17;;;;;;;6.90;4.03;;;23.70;95.20;;;;;;5089295;28;20040;-34
2023/05/31 09:37:47;;;;;;;6.35;3.75;;;24.00;88.90;;;;;;5085069;28;20619;-37
2023/05/31 09:40:26;;;;;;;6.03;3.65;;;24.20;91.50;;;;;;5090679;28;20039;-35
2023/05/31 09:42:54;;;;;;;6.72;4.40;;;24.30;90.40;;;;;;5088691;28;20032;-35
2023/05/31 09:45:21;;;;;;;6.10;4.18;;;24.30;87.40;;;;;;5082158;28;20043;-36
2023/05/31 09:47:48;;;;;;;7.80;4.40;;;24.30;86.70;;;;;;5068044;28;20032;-35
2023/05/31 09:50:22;;;;;;;7.90;4.63;;;24.50;83.70;;;;;;5089866;28;20508;-34
2023/05/31 09:52:51;;;;;;;5.75;4.22;;;24.60;80.90;;;;;;5090867;28;20511;-35
2023/05/31 09:55:17;;;;;;;5.20;3.85;;;24.60;79.70;;;;;;5087245;28;20036;-35
2023/05/31 09:57:45;;;;;;;6.43;4.13;;;24.60;79.20;;;;;;5086636;28;20040;-37
2023/05/31 10:00:16;;;;;;;5.93;4.18;;;24.70;78.90;;;;;;5089522;28;20126;-35
2023/05/31 10:02:46;;;;;;;5.47;3.72;;;25.00;79.20;;;;;;5086699;28;20455;-35
2023/05/31 10:05:14;;;;;;;5.93;4.03;;;25.20;76.70;;;;;;5082574;28;20051;-36
2023/05/31 10:07:46;;;;;;;6.65;4.10;;;25.40;77.30;;;;;;5089883;28;20486;-36
2023/05/31 10:10:12;;;;;;;6.80;4.23;;;25.40;75.40;;;;;;5087126;28;20066;-36
2023/05/31 10:12:51;;;;;;;5.65;4.15;;;25.20;74.50;;;;;;5078730;28;20047;-35
2023/05/31 10:15:23;;;;;;;5.43;3.50;;;25.30;70.70;;;;;;5085526;28;20443;-35
2023/05/31 10:18:11;;;;;;;7.28;3.42;;;25.40;67.10;;;;;;5087899;28;20185;-35
2023/05/31 10:21:06;;;;;;;5.72;3.63;;;25.80;69.30;;;;;;5084642;28;20491;-36
2023/05/31 10:23:36;;;;;;;7.10;4.05;;;26.10;69.30;;;;;;5084620;28;20514;-35
2023/05/31 10:26:17;;;;;;;8.18;4.10;;;26.10;69.50;;;;;;5084698;28;20028;-36
2023/05/31 10:29:01;;;;;;;7.68;3.60;;;26.40;68.50;;;;;;5076252;28;20083;-36
2023/05/31 10:31:35;;;;;;;6.50;3.65;;;26.60;69.80;;;;;;5081778;28;20032;-35
2023/05/31 10:34:24;;;;;;;5.20;3.97;;;27.00;69.20;;;;;;5086365;28;20040;-35
2023/05/31 10:36:51;;;;;;;7.72;4.30;;;27.20;66.70;;;;;;5086361;28;20110;-35
2023/05/31 10:39:39;;;;;;;6.53;3.67;;;27.50;66.40;;;;;;5081400;28;20035;-37
2023/05/31 10:42:24;;;;;;;6.32;3.45;;;27.70;64.30;;;;;;5086315;28;20072;-36
2023/05/31 10:45:09;;;;;;;6.70;3.60;;;27.50;64.50;;;;;;5082688;28;20424;-35
2023/05/31 10:48:10;;;;;;;7.32;4.03;;;27.30;61.80;;;;;;5082650;28;20441;-36
2023/05/31 10:50:58;;;;;;;5.03;3.92;;;27.30;59.70;;;;;;5079335;28;20124;-35
2023/05/31 10:53:47;;;;;;;4.75;3.00;;;27.10;59.30;;;;;;5079692;28;20089;-35
2023/05/31 10:56:14;;;;;;;6.65;3.80;;;27.30;61.50;;;;;;5078657;28;20050;-35
2023/05/31 10:58:49;;;;;;;5.95;4.10;;;27.30;61.00;;;;;;5078382;28;20077;-37
2023/05/31 11:01:21;;;;;;;10.45;4.45;;;27.30;59.30;;;;;;5083369;28;20174;-36
2023/05/31 11:03:57;;;;;;;6.07;3.88;;;27.00;59.70;;;;;;5080188;28;20067;-35
2023/05/31 11:06:31;;;;;;;4.85;3.22;;;27.40;59.80;;;;;;5080773;28;20040;-36
2023/05/31 11:09:00;;;;;;;7.30;3.97;;;27.70;60.00;;;;;;5082838;28;20089;-35
2023/05/31 11:11:28;;;;;;;5.45;3.83;;;28.00;60.40;;;;;;5080389;28;20033;-36
2023/05/31 11:14:06;;;;;;;6.47;4.20;;;28.10;59.20;;;;;;5081831;28;20066;-39
2023/05/31 11:17:06;;;;;;;7.18;4.18;;;28.00;56.80;;;;;;5081510;28;20582;-36
2023/05/31 11:19:36;;;;;;;6.20;4.43;;;27.90;58.00;;;;;;5081219;28;20047;-35
2023/05/31 11:22:15;;;;;;;5.13;3.35;;;27.90;57.50;;;;;;5080118;28;20036;-39
2023/05/31 11:24:51;;;;;;;5.43;3.58;;;28.20;58.90;;;;;;5077338;28;20043;-35
2023/05/31 11:27:21;;;;;;;4.75;3.20;;;28.60;58.90;;;;;;5078990;28;20035;-35
2023/05/31 11:29:53;;;;;;;5.20;3.55;;;28.90;57.10;;;;;;5081927;28;20036;-36
2023/05/31 11:32:20;;;;;;;5.97;3.70;;;28.80;56.80;;;;;;5083442;28;20039;-35
2023/05/31 11:34:56;;;;;;;5.55;3.70;;;28.90;56.80;;;;;;5078914;28;20405;-35
2023/05/31 11:37:26;;;;;;;5.22;3.40;;;29.00;56.80;;;;;;5082014;28;20551;-36
2023/05/31 11:39:56;;;;;;;4.93;3.10;;;29.10;56.60;;;;;;5084652;28;20047;-37
2023/05/31 11:42:25;;;;;;;6.68;3.53;;;29.20;56.20;;;;;;5081667;28;20505;-39
2023/05/31 11:44:53;;;;;;;5.70;3.65;;;29.40;54.80;;;;;;5085882;28;20497;-35
2023/05/31 11:47:20;;;;;;;5.55;3.50;;;29.60;55.20;;;;;;5082989;28;20028;-36
2023/05/31 11:49:47;;;;;;;6.53;3.65;;;29.80;54.90;;;;;;5089614;28;20036;-36
2023/05/31 11:52:18;;;;;;;6.40;4.25;;;30.00;54.30;;;;;;5088831;28;20048;-36
2023/05/31 11:54:48;;;;;;;5.75;3.47;;;29.50;52.90;;;;;;5089123;28;20119;-39
2023/05/31 11:57:16;;;;;;;7.15;3.72;;;29.60;54.40;;;;;;5089568;28;20078;-38
2023/05/31 11:59:43;;;;;;;9.18;3.95;;;29.60;55.20;;;;;;5087730;28;20173;-35
2023/05/31 12:02:10;;;;;;;7.75;4.70;;;29.80;56.20;;;;;;5089515;28;20040;-39
2023/05/31 12:04:41;;;;;;;6.18;3.85;;;29.30;55.20;;;;;;5085129;28;20098;-35
2023/05/31 12:07:20;;;;;;;5.43;3.80;;;29.20;56.20;;;;;;5087874;28;20489;-38
2023/05/31 12:09:46;;;;;;;10.77;4.47;;;28.90;55.10;;;;;;5087922;28;20040;-35
2023/05/31 12:12:12;;;;;;;5.97;4.00;;;28.70;55.60;;;;;;5083626;28;20115;-36
2023/05/31 12:14:48;;;;;;;6.43;3.83;;;29.00;55.80;;;;;;5092460;28;20032;-35
2023/05/31 12:17:14;;;;;;;7.53;3.92;;;29.30;55.80;;;;;;5078341;28;20092;-35
2023/05/31 12:19:40;;;;;;;7.40;4.18;;;29.30;56.60;;;;;;5087249;28;20047;-37
2023/05/31 12:22:09;;;;;;;7.20;3.58;;;29.60;56.40;;;;;;5088292;28;20046;-37
2023/05/31 12:24:36;;;;;;;6.30;4.10;;;29.60;55.50;;;;;;5075191;28;20122;-36
2023/05/31 12:27:02;;;;;;;8.50;3.83;;;29.60;56.10;;;;;;5086298;28;20028;-36
2023/05/31 12:29:31;;;;;;;5.82;3.58;;;30.00;56.90;;;;;;5084097;28;20039;-36
2023/05/31 12:32:02;;;;;;;6.55;4.18;;;30.10;55.90;;;;;;5087463;28;20036;-35
2023/05/31 12:34:30;;;;;;;5.43;3.70;;;30.60;55.50;;;;;;5086550;28;20505;-36
2023/05/31 12:36:56;;;;;;;6.18;3.92;;;30.40;54.30;;;;;;5086740;28;20032;-36
2023/05/31 12:39:26;;;;;;;7.25;4.07;;;30.60;54.10;;;;;;5092528;28;20039;-36
2023/05/31 12:41:52;;;;;;;8.25;4.28;;;30.30;53.80;;;;;;5072407;28;20076;-35
2023/05/31 12:44:22;;;;;;;6.95;3.40;;;30.40;53.80;;;;;;5083292;28;20032;-36
2023/05/31 12:46:49;;;;;;;7.70;4.28;;;30.70;54.70;;;;;;5088501;28;20089;-39
2023/05/31 12:49:24;;;;;;;6.00;3.97;;;30.70;54.00;;;;;;5085079;28;20516;-36
2023/05/31 12:52:06;;;;;;;5.45;4.15;;;30.60;53.50;;;;;;5090081;28;20122;-37
2023/05/31 12:54:33;;;;;;;6.37;4.50;;;30.60;52.50;;;;;;5085417;28;20044;-36